Time;durP1;ratioP1;P1;durP2;ratioP2;P2;SDS_P1;SDS_P2;PMS_P1;PMS_P2;Temp;Humidity;BMP_temperature;BMP_pressure;BME280_temperature;BME280_humidity;BME280_pressure;Samples;Min_cycle;Max_cycle;Signal;HPM_P1;HPM_P2
2023/12/25 04:54:16;;;;;;;1.60;0.40;;;;;;;;;;81754;303;3013285;-39
2023/12/25 04:56:56;;;;;;;1.90;0.50;;;;;;;;;;80822;285;3028090;-44
2023/12/25 04:59:34;;;;;;;1.10;0.40;;;;;;;;;;81506;271;3027303;-42
2023/12/25 05:02:15;;;;;;;1.60;0.40;;;;;;;;;;81516;282;3031050;-42
2023/12/25 05:04:53;;;;;;;1.70;0.50;;;;;;;;;;81471;278;3031767;-36
2023/12/25 05:07:33;;;;;;;1.40;0.40;;;;;;;;;;81449;271;3134799;-36
2023/12/25 05:10:13;;;;;;;1.40;0.50;;;;;;;;;;81523;270;3027454;-38
2023/12/25 05:12:52;;;;;;;1.50;0.50;;;;;;;;;;81649;273;3030841;-39
2023/12/25 05:15:29;;;;;;;1.60;0.40;;;;;;;;;;82843;273;3037794;-37
2023/12/25 05:18:07;;;;;;;1.50;0.40;;;;;;;;;;82063;274;3027909;-37
2023/12/25 05:20:45;;;;;;;0.90;0.30;;;;;;;;;;81539;273;3028168;-39
2023/12/25 05:23:21;;;;;;;1.70;0.40;;;;;;;;;;82958;273;3030430;-39
2023/12/25 05:25:58;;;;;;;1.80;0.50;;;;;;;;;;82730;269;3037766;-40
2023/12/25 05:28:35;;;;;;;1.60;0.50;;;;;;;;;;82782;274;3028659;-39
2023/12/25 05:31:13;;;;;;;1.60;0.40;;;;;;;;;;82730;269;3027152;-39
2023/12/25 05:33:49;;;;;;;1.20;0.40;;;;;;;;;;82826;265;3030370;-39
2023/12/25 05:36:27;;;;;;;1.60;0.50;;;;;;;;;;81621;269;3031240;-39
2023/12/25 05:39:08;;;;;;;1.70;0.40;;;;;;;;;;81486;277;3027914;-38
2023/12/25 05:41:53;;;;;;;1.40;0.50;;;;;;;;;;81539;265;3027440;-36
2023/12/25 05:44:37;;;;;;;1.00;0.40;;;;;;;;;;81528;269;3031318;-41
2023/12/25 05:47:15;;;;;;;1.70;0.40;;;;;;;;;;81548;277;3031405;-38
2023/12/25 05:49:52;;;;;;;1.80;0.50;;;;;;;;;;81520;269;3028123;-38
2023/12/25 05:52:30;;;;;;;1.30;0.40;;;;;;;;;;82934;265;3027767;-39
2023/12/25 05:55:08;;;;;;;1.10;0.40;;;;;;;;;;82750;269;3030422;-39
2023/12/25 05:57:44;;;;;;;1.60;0.50;;;;;;;;;;82857;273;3031235;-40
2023/12/25 06:00:21;;;;;;;1.00;0.40;;;;;;;;;;82797;269;3028862;-39
2023/12/25 06:02:58;;;;;;;1.50;0.60;;;;;;;;;;82440;273;3028045;-37
2023/12/25 06:05:37;;;;;;;1.60;0.50;;;;;;;;;;81504;269;3031406;-41
2023/12/25 06:08:19;;;;;;;1.60;0.50;;;;;;;;;;81516;269;3031469;-39
2023/12/25 06:10:59;;;;;;;1.20;0.30;;;;;;;;;;81526;273;3028064;-39
2023/12/25 06:13:35;;;;;;;1.50;0.40;;;;;;;;;;81551;287;3027863;-39
2023/12/25 06:16:14;;;;;;;1.60;0.40;;;;;;;;;;81495;269;3030491;-39
2023/12/25 06:18:52;;;;;;;2.30;0.50;;;;;;;;;;81515;273;3031209;-39
2023/12/25 06:21:30;;;;;;;1.50;0.40;;;;;;;;;;81488;269;3028373;-39
2023/12/25 06:24:09;;;;;;;1.10;0.40;;;;;;;;;;81490;277;3027634;-39
2023/12/25 06:26:45;;;;;;;2.20;0.50;;;;;;;;;;82865;269;3032293;-39
2023/12/25 06:29:21;;;;;;;1.20;0.40;;;;;;;;;;82820;273;3030996;-39
2023/12/25 06:31:58;;;;;;;1.30;0.40;;;;;;;;;;82788;269;3027875;-39
2023/12/25 06:34:34;;;;;;;1.90;0.50;;;;;;;;;;82805;269;3027877;-39
2023/12/25 06:37:11;;;;;;;1.30;0.40;;;;;;;;;;82731;277;3038567;-39
2023/12/25 06:39:49;;;;;;;1.00;0.40;;;;;;;;;;82369;269;3031862;-39
2023/12/25 06:42:27;;;;;;;1.50;0.50;;;;;;;;;;81515;269;3029514;-38
2023/12/25 06:45:06;;;;;;;1.40;0.50;;;;;;;;;;81532;266;3027584;-36
2023/12/25 06:47:42;;;;;;;1.70;0.50;;;;;;;;;;82843;273;3038075;-36
2023/12/25 06:50:19;;;;;;;2.10;0.50;;;;;;;;;;82947;273;3030974;-36
2023/12/25 06:52:55;;;;;;;1.30;0.50;;;;;;;;;;81522;266;3028938;-36
2023/12/25 06:55:35;;;;;;;1.90;0.50;;;;;;;;;;81524;262;3027848;-42
2023/12/25 06:58:15;;;;;;;1.50;0.50;;;;;;;;;;81474;273;3032730;-42
2023/12/25 07:00:54;;;;;;;1.50;0.50;;;;;;;;;;81513;269;3031681;-41
2023/12/25 07:03:30;;;;;;;1.80;0.50;;;;;;;;;;81503;269;3028067;-42
2023/12/25 07:06:12;;;;;;;1.80;0.60;;;;;;;;;;81444;269;3027644;-42
2023/12/25 07:08:50;;;;;;;1.40;0.50;;;;;;;;;;81505;269;3031112;-42
2023/12/25 07:11:29;;;;;;;1.30;0.50;;;;;;;;;;81523;269;3031362;-38
2023/12/25 07:14:07;;;;;;;2.10;0.50;;;;;;;;;;81500;269;3028557;-38
2023/12/25 07:16:45;;;;;;;1.80;0.60;;;;;;;;;;81476;277;3027613;-39
2023/12/25 07:19:21;;;;;;;1.20;0.50;;;;;;;;;;81507;269;3030498;-38
2023/12/25 07:21:58;;;;;;;1.80;0.50;;;;;;;;;;81516;269;3031721;-38
2023/12/25 07:24:38;;;;;;;2.10;0.70;;;;;;;;;;81543;269;3028184;-39
2023/12/25 07:27:15;;;;;;;1.70;0.50;;;;;;;;;;81473;274;3027734;-38
2023/12/25 07:29:54;;;;;;;1.90;0.60;;;;;;;;;;81536;273;3031165;-38
2023/12/25 07:32:33;;;;;;;1.60;0.40;;;;;;;;;;81673;270;3031400;-39
2023/12/25 07:35:14;;;;;;;1.30;0.50;;;;;;;;;;81703;266;3028491;-39
2023/12/25 07:37:50;;;;;;;1.90;0.50;;;;;;;;;;82990;266;3027615;-39
2023/12/25 07:40:27;;;;;;;1.70;0.50;;;;;;;;;;83049;266;3031355;-39
2023/12/25 07:43:07;;;;;;;1.50;0.60;;;;;;;;;;83167;262;3031375;-39
2023/12/25 07:45:43;;;;;;;1.30;0.50;;;;;;;;;;83075;266;3028314;-39
2023/12/25 07:48:20;;;;;;;2.10;0.60;;;;;;;;;;83076;266;3027666;-39
2023/12/25 07:50:57;;;;;;;2.00;0.50;;;;;;;;;;83112;266;3031296;-39
2023/12/25 07:53:33;;;;;;;1.00;0.40;;;;;;;;;;83055;270;3031277;-39
